createdAt,value
2019-03-21T00:01:34.626Z,4.50
2019-03-21T00:04:08.483Z,4.50
2019-03-21T00:06:39.376Z,4.60
2019-03-21T00:09:11.837Z,4.70
2019-03-21T00:12:02.102Z,4.80
2019-03-21T00:15:02.509Z,4.80
2019-03-21T00:17:36.311Z,4.80
2019-03-21T00:20:10.575Z,4.90
2019-03-21T00:22:42.457Z,4.90
2019-03-21T00:25:14.588Z,4.90
2019-03-21T00:27:45.366Z,4.80
2019-03-21T00:30:18.324Z,4.80
2019-03-21T00:32:49.127Z,4.90
2019-03-21T00:35:20.030Z,5.00
2019-03-21T00:37:50.821Z,5.00
2019-03-21T00:40:26.946Z,5.00
2019-03-21T00:42:57.926Z,5.00
2019-03-21T00:45:28.657Z,5.00
2019-03-21T00:47:59.570Z,5.10
2019-03-21T00:50:30.370Z,5.10
2019-03-21T00:53:01.207Z,5.10
2019-03-21T00:55:32.866Z,5.10
2019-03-21T00:58:03.652Z,5.10
2019-03-21T01:00:37.705Z,5.10
2019-03-21T01:03:08.688Z,5.10
2019-03-21T01:05:39.497Z,5.10
2019-03-21T01:08:10.185Z,5.00
2019-03-21T01:10:40.947Z,4.90
2019-03-21T01:13:11.787Z,4.90
2019-03-21T01:15:42.633Z,4.90
2019-03-21T01:18:13.412Z,4.90
2019-03-21T01:20:44.133Z,4.90
2019-03-21T01:23:15.711Z,4.80
2019-03-21T01:25:50.818Z,4.80
2019-03-21T01:28:23.775Z,4.80
2019-03-21T01:30:54.553Z,4.80
2019-03-21T01:33:25.196Z,4.90
2019-03-21T01:35:56.038Z,4.80
2019-03-21T01:38:26.458Z,4.90
2019-03-21T01:40:57.045Z,4.80
2019-03-21T01:43:27.669Z,4.70
2019-03-21T01:45:58.208Z,4.70
2019-03-21T01:48:28.597Z,4.70
2019-03-21T01:50:59.011Z,4.70
2019-03-21T01:53:29.716Z,4.70
2019-03-21T01:56:00.113Z,4.60
2019-03-21T01:58:30.585Z,4.60
2019-03-21T02:01:01.190Z,4.70
2019-03-21T02:03:31.557Z,4.70
2019-03-21T02:06:02.355Z,4.70
2019-03-21T02:08:32.780Z,4.70
2019-03-21T02:11:03.167Z,4.80
2019-03-21T02:13:33.598Z,4.80
2019-03-21T02:16:04.087Z,4.80
2019-03-21T02:18:34.465Z,4.80
2019-03-21T02:21:05.135Z,4.80
2019-03-21T02:23:35.587Z,4.80
2019-03-21T02:26:07.505Z,4.80
2019-03-21T02:28:38.007Z,4.80
2019-03-21T02:31:08.620Z,4.70
2019-03-21T02:33:39.335Z,4.60
2019-03-21T02:36:10.197Z,4.50
2019-03-21T02:38:41.028Z,4.40
2019-03-21T02:41:12.078Z,4.30
2019-03-21T02:43:42.572Z,4.20
2019-03-21T02:46:12.971Z,4.10
2019-03-21T02:48:43.379Z,3.80
2019-03-21T02:51:13.846Z,3.60
2019-03-21T02:53:44.590Z,3.50
2019-03-21T02:56:16.865Z,3.30
2019-03-21T02:58:47.667Z,3.10
2019-03-21T03:01:18.284Z,2.60
2019-03-21T03:03:48.993Z,2.30
2019-03-21T03:06:19.455Z,2.00
2019-03-21T03:08:49.887Z,1.90
2019-03-21T03:11:20.747Z,1.80
2019-03-21T03:13:51.491Z,1.80
2019-03-21T03:16:22.460Z,1.80
2019-03-21T03:18:53.340Z,1.80
2019-03-21T03:21:24.028Z,1.80
2019-03-21T03:23:54.894Z,1.70
2019-03-21T03:26:25.653Z,1.60
2019-03-21T03:28:57.374Z,1.50
2019-03-21T03:31:28.111Z,1.50
2019-03-21T03:33:58.925Z,1.50
2019-03-21T03:36:29.654Z,1.30
2019-03-21T03:39:00.271Z,1.20
2019-03-21T03:41:31.239Z,1.10
2019-03-21T03:44:01.864Z,1.10
2019-03-21T03:46:32.518Z,1.00
2019-03-21T03:49:03.322Z,1.00
2019-03-21T03:51:34.028Z,0.90
2019-03-21T03:54:04.702Z,0.80
2019-03-21T03:56:35.393Z,0.70
2019-03-21T03:59:06.590Z,0.70
2019-03-21T04:01:37.351Z,0.70
2019-03-21T04:04:08.227Z,0.60
2019-03-21T04:06:38.997Z,0.60
2019-03-21T04:09:10.202Z,0.60
2019-03-21T04:11:41.115Z,0.50
2019-03-21T04:14:11.942Z,0.40
2019-03-21T04:16:42.794Z,0.30
2019-03-21T04:19:13.631Z,0.30
2019-03-21T04:21:44.417Z,0.20
2019-03-21T04:24:15.038Z,0.20
2019-03-21T04:26:45.618Z,0.20
2019-03-21T04:29:16.378Z,0.20
2019-03-21T04:31:48.099Z,0.20
2019-03-21T04:34:18.900Z,0.10
2019-03-21T04:36:49.625Z,0.10
2019-03-21T04:39:20.413Z,0.10
2019-03-21T04:41:51.190Z,0.10
2019-03-21T04:44:21.797Z,0.10
2019-03-21T04:46:52.452Z,0.10
2019-03-21T04:49:23.254Z,0.20
2019-03-21T04:51:54.061Z,0.20
2019-03-21T04:54:24.858Z,0.10
2019-03-21T04:56:55.626Z,0.00
2019-03-21T04:59:26.267Z,0.00
2019-03-21T05:01:57.009Z,0.00
2019-03-21T05:04:27.843Z,0.00
2019-03-21T05:06:58.521Z,0.00
2019-03-21T05:09:29.154Z,0.00
2019-03-21T05:11:59.788Z,0.00
2019-03-21T05:14:30.503Z,-0.10
2019-03-21T05:17:01.264Z,-0.20
2019-03-21T05:19:32.054Z,-0.30
2019-03-21T05:22:02.727Z,-0.20
2019-03-21T05:24:33.365Z,-0.10
2019-03-21T05:27:04.019Z,-0.10
2019-03-21T05:29:34.817Z,-0.20
2019-03-21T05:32:05.558Z,-0.30
2019-03-21T05:34:37.383Z,-0.40
2019-03-21T05:37:08.154Z,-0.40
2019-03-21T05:39:38.886Z,-0.40
2019-03-21T05:42:13.850Z,-0.40
2019-03-21T05:44:45.059Z,-0.30
2019-03-21T05:47:15.678Z,-0.20
2019-03-21T05:49:46.495Z,-0.10
2019-03-21T05:52:17.290Z,0.00
2019-03-21T05:54:48.140Z,0.00
2019-03-21T05:57:18.967Z,-0.10
2019-03-21T05:59:49.772Z,-0.10
2019-03-21T06:02:20.721Z,-0.10
2019-03-21T06:04:51.577Z,0.10
2019-03-21T06:07:33.969Z,0.30
2019-03-21T06:10:05.434Z,0.40
2019-03-21T06:12:42.876Z,0.50
2019-03-21T06:15:14.851Z,0.50
2019-03-21T06:17:46.759Z,0.60
2019-03-21T06:20:44.014Z,0.70
2019-03-21T06:23:36.950Z,0.90
2019-03-21T06:26:40.772Z,1.00
2019-03-21T06:29:14.023Z,1.00
2019-03-21T06:31:46.418Z,1.10
2019-03-21T06:34:17.970Z,1.20
2019-03-21T06:36:50.114Z,1.30
2019-03-21T06:39:20.743Z,1.30
2019-03-21T06:41:51.478Z,1.40
2019-03-21T06:44:22.048Z,1.60
2019-03-21T06:46:52.473Z,1.70
2019-03-21T06:49:22.851Z,1.90
2019-03-21T06:51:53.325Z,2.00
2019-03-21T06:54:23.757Z,2.10
2019-03-21T06:56:54.225Z,2.30
2019-03-21T06:59:24.669Z,2.40
2019-03-21T07:01:55.082Z,2.50
2019-03-21T07:04:25.478Z,2.50
2019-03-21T07:07:07.271Z,2.60
2019-03-21T07:09:29.234Z,2.70
2019-03-21T07:11:59.913Z,2.80
2019-03-21T07:14:30.315Z,2.90
2019-03-21T07:17:00.955Z,3.10
2019-03-21T07:19:31.481Z,3.20
2019-03-21T07:22:01.977Z,3.30
2019-03-21T07:24:32.406Z,3.50
2019-03-21T07:27:02.846Z,3.60
2019-03-21T07:29:33.247Z,3.70
2019-03-21T07:32:03.748Z,3.90
2019-03-21T07:34:34.292Z,4.00
2019-03-21T07:37:04.779Z,4.20
2019-03-21T07:39:36.149Z,4.40
2019-03-21T07:42:06.998Z,4.60
2019-03-21T07:44:37.434Z,4.80
2019-03-21T07:47:12.758Z,5.00
2019-03-21T07:49:39.945Z,5.10
2019-03-21T07:52:10.376Z,5.30
2019-03-21T07:54:40.823Z,5.50
2019-03-21T07:57:11.283Z,5.90
2019-03-21T07:59:41.954Z,6.20
2019-03-21T08:02:12.684Z,6.60
2019-03-21T08:04:43.376Z,6.90
2019-03-21T08:07:13.802Z,7.40
2019-03-21T08:09:44.699Z,7.60
2019-03-21T08:12:15.643Z,7.90
2019-03-21T08:14:46.018Z,8.00
2019-03-21T08:17:16.425Z,8.10
2019-03-21T08:19:46.888Z,8.20
2019-03-21T08:22:17.298Z,8.30
2019-03-21T08:24:47.952Z,8.40
2019-03-21T08:27:18.421Z,8.50
2019-03-21T08:29:48.827Z,8.60
2019-03-21T08:32:19.227Z,8.60
2019-03-21T08:34:49.794Z,8.70
2019-03-21T08:37:20.210Z,8.70
2019-03-21T08:39:50.630Z,8.80
2019-03-21T08:42:22.115Z,8.90
2019-03-21T08:44:52.553Z,8.90
2019-03-21T08:47:22.970Z,9.00
2019-03-21T08:49:53.441Z,9.10
2019-03-21T08:52:23.867Z,9.30
2019-03-21T08:54:54.683Z,9.50
2019-03-21T08:57:25.477Z,9.60
2019-03-21T08:59:56.266Z,9.70
2019-03-21T09:02:26.984Z,9.80
2019-03-21T09:04:59.652Z,9.90
2019-03-21T09:07:30.007Z,10.00
2019-03-21T09:10:00.783Z,10.20
2019-03-21T09:12:32.372Z,10.30
2019-03-21T09:15:03.128Z,10.40
2019-03-21T09:17:38.907Z,10.50
2019-03-21T09:20:11.159Z,10.60
2019-03-21T09:22:43.463Z,10.60
2019-03-21T09:25:15.853Z,10.70
2019-03-21T09:27:46.558Z,10.80
2019-03-21T09:30:18.556Z,11.00
2019-03-21T09:32:49.409Z,11.10
2019-03-21T09:35:22.092Z,11.20
2019-03-21T09:37:52.922Z,11.30
2019-03-21T09:40:26.384Z,11.40
2019-03-21T09:42:57.781Z,11.50
2019-03-21T09:45:28.663Z,11.60
2019-03-21T09:47:59.556Z,11.70
2019-03-21T09:50:31.212Z,11.80
2019-03-21T09:53:02.026Z,12.00
2019-03-21T09:55:32.909Z,12.10
2019-03-21T09:58:03.684Z,12.20
2019-03-21T10:00:35.758Z,12.20
2019-03-21T10:03:07.002Z,12.30
2019-03-21T10:05:37.844Z,12.30
2019-03-21T10:08:08.647Z,12.30
2019-03-21T10:10:39.482Z,12.40
2019-03-21T10:13:10.302Z,12.50
2019-03-21T10:15:41.567Z,12.70
2019-03-21T10:18:12.375Z,12.80
2019-03-21T10:20:42.978Z,13.00
2019-03-21T10:23:13.750Z,12.90
2019-03-21T10:25:44.429Z,13.00
2019-03-21T10:28:15.111Z,13.10
2019-03-21T10:30:45.977Z,13.00
2019-03-21T10:33:16.792Z,13.10
2019-03-21T10:35:47.494Z,13.10
2019-03-21T10:38:18.193Z,13.10
2019-03-21T10:40:48.929Z,13.20
2019-03-21T10:43:19.499Z,13.30
2019-03-21T10:45:50.258Z,13.40
2019-03-21T10:48:23.569Z,13.60
2019-03-21T10:50:54.277Z,13.80
2019-03-21T10:53:25.061Z,13.80
2019-03-21T10:55:55.833Z,13.90
2019-03-21T10:58:26.914Z,14.00
2019-03-21T11:00:57.720Z,14.20
2019-03-21T11:03:28.556Z,14.40
2019-03-21T11:05:59.406Z,14.40
2019-03-21T11:08:30.167Z,14.50
2019-03-21T11:11:00.889Z,14.50
2019-03-21T11:13:31.550Z,14.60
2019-03-21T11:16:02.254Z,14.60
2019-03-21T11:18:51.546Z,14.70
2019-03-21T11:21:22.586Z,14.80
2019-03-21T11:23:53.321Z,14.90
2019-03-21T11:26:24.098Z,15.10
2019-03-21T11:28:54.770Z,15.10
2019-03-21T11:31:25.425Z,15.00
2019-03-21T11:33:56.080Z,14.80
2019-03-21T11:36:37.323Z,15.00
2019-03-21T11:38:59.210Z,15.60
2019-03-21T11:41:30.036Z,16.40
2019-03-21T11:44:00.860Z,17.00
2019-03-21T11:46:31.708Z,17.30
2019-03-21T11:49:03.351Z,17.70
2019-03-21T11:51:34.092Z,18.10
2019-03-21T11:54:04.878Z,18.40
2019-03-21T11:56:35.507Z,18.40
2019-03-21T11:59:06.385Z,18.70
2019-03-21T12:01:37.217Z,19.10
2019-03-21T12:04:08.073Z,19.30
2019-03-21T12:06:42.794Z,19.50
2019-03-21T12:09:13.475Z,19.30
2019-03-21T12:11:44.418Z,19.20
2019-03-21T12:14:15.098Z,19.50
2019-03-21T12:16:45.774Z,19.90
2019-03-21T12:19:16.572Z,20.00
2019-03-21T12:21:47.305Z,20.30
2019-03-21T12:24:17.980Z,20.20
2019-03-21T12:26:48.559Z,20.30
2019-03-21T12:29:19.243Z,20.70
2019-03-21T12:31:49.952Z,20.80
2019-03-21T12:34:20.712Z,20.90
2019-03-21T12:36:51.390Z,21.10
2019-03-21T12:39:22.187Z,21.20
2019-03-21T12:41:54.845Z,21.30
2019-03-21T12:44:28.090Z,21.70
2019-03-21T12:46:59.888Z,21.80
2019-03-21T12:49:34.522Z,21.80
2019-03-21T12:52:17.329Z,22.20
2019-03-21T12:54:48.590Z,22.20
2019-03-21T12:57:21.212Z,22.50
2019-03-21T12:59:52.002Z,22.50
2019-03-21T13:02:31.913Z,22.60
2019-03-21T13:04:58.135Z,22.70
2019-03-21T13:07:30.094Z,22.80
2019-03-21T13:10:01.435Z,23.10
2019-03-21T13:12:37.395Z,22.50
2019-03-21T13:15:08.742Z,21.90
2019-03-21T13:17:39.506Z,21.90
2019-03-21T13:20:10.797Z,22.40
2019-03-21T13:22:52.593Z,22.90
2019-03-21T13:25:16.612Z,23.30
2019-03-21T13:27:50.733Z,23.50
2019-03-21T13:30:21.674Z,23.70
2019-03-21T13:32:54.396Z,23.60
2019-03-21T13:35:32.606Z,23.60
2019-03-21T13:37:57.676Z,23.60
2019-03-21T13:40:28.207Z,23.50
2019-03-21T13:42:58.969Z,23.60
2019-03-21T13:45:29.636Z,23.50
2019-03-21T13:48:00.461Z,23.50
2019-03-21T13:50:32.031Z,23.70
2019-03-21T13:53:05.128Z,24.20
2019-03-21T13:55:34.860Z,23.90
2019-03-21T13:58:05.762Z,23.90
2019-03-21T14:00:36.632Z,24.40
2019-03-21T14:03:07.377Z,24.60
2019-03-21T14:05:38.145Z,24.60
2019-03-21T14:08:08.840Z,25.10
2019-03-21T14:10:39.570Z,25.30
2019-03-21T14:13:10.269Z,24.90
2019-03-21T14:15:41.035Z,24.90
2019-03-21T14:18:11.865Z,24.90
2019-03-21T14:20:42.658Z,24.60
2019-03-21T14:23:17.257Z,24.50
2019-03-21T14:25:45.850Z,24.70
2019-03-21T14:28:16.634Z,24.80
2019-03-21T14:30:47.422Z,24.90
2019-03-21T14:33:18.211Z,24.80
2019-03-21T14:35:48.975Z,24.90
2019-03-21T14:38:26.296Z,24.90
2019-03-21T14:40:52.151Z,25.40
2019-03-21T14:43:22.931Z,25.70
2019-03-21T14:45:53.553Z,26.20
2019-03-21T14:48:24.333Z,25.30
2019-03-21T14:50:54.977Z,25.10
2019-03-21T14:53:29.054Z,25.30
2019-03-21T14:55:58.990Z,25.40
2019-03-21T14:58:29.432Z,25.40
2019-03-21T15:01:00.068Z,25.10
2019-03-21T15:03:30.845Z,25.00
2019-03-21T15:06:01.561Z,25.10
2019-03-21T15:08:32.418Z,25.10
2019-03-21T15:11:03.287Z,25.30
2019-03-21T15:13:35.476Z,25.30
2019-03-21T15:16:06.468Z,25.00
2019-03-21T15:18:37.344Z,25.10
2019-03-21T15:21:08.177Z,25.30
2019-03-21T15:23:40.925Z,25.10
2019-03-21T15:26:11.312Z,25.20
2019-03-21T15:28:42.221Z,25.20
2019-03-21T15:31:12.794Z,25.50
2019-03-21T15:33:43.630Z,25.60
2019-03-21T15:36:14.515Z,25.60
2019-03-21T15:38:45.202Z,25.30
2019-03-21T15:41:16.329Z,25.20
2019-03-21T15:43:47.193Z,25.30
2019-03-21T15:46:18.069Z,25.30
2019-03-21T15:48:48.707Z,25.20
2019-03-21T15:51:19.458Z,25.10
2019-03-21T15:53:56.050Z,24.80
2019-03-21T15:56:23.269Z,24.70
2019-03-21T15:58:54.091Z,24.50
2019-03-21T16:01:24.850Z,24.50
2019-03-21T16:03:55.713Z,24.50
2019-03-21T16:06:26.503Z,24.20
2019-03-21T16:08:57.204Z,24.20
2019-03-21T16:11:28.096Z,24.30
2019-03-21T16:13:58.906Z,24.30
2019-03-21T16:16:29.516Z,24.30
2019-03-21T16:19:00.299Z,24.40
2019-03-21T16:21:31.302Z,24.20
2019-03-21T16:24:05.351Z,24.20
2019-03-21T16:26:36.589Z,23.90
2019-03-21T16:29:06.586Z,23.60
2019-03-21T16:31:37.196Z,23.20
2019-03-21T16:34:08.003Z,22.70
2019-03-21T16:36:38.725Z,22.50
2019-03-21T16:39:09.905Z,22.40
2019-03-21T16:41:40.692Z,22.20
2019-03-21T16:44:11.463Z,21.90
2019-03-21T16:46:42.224Z,21.80
2019-03-21T16:49:12.990Z,21.40
2019-03-21T16:51:43.777Z,21.20
2019-03-21T16:54:17.309Z,20.90
2019-03-21T16:56:47.975Z,20.90
2019-03-21T16:59:18.759Z,20.60
2019-03-21T17:01:49.467Z,20.50
2019-03-21T17:04:20.322Z,20.20
2019-03-21T17:06:51.171Z,19.90
2019-03-21T17:09:21.983Z,19.50
2019-03-21T17:11:52.770Z,19.00
2019-03-21T17:14:23.535Z,18.50
2019-03-21T17:16:54.283Z,17.90
2019-03-21T17:19:25.073Z,17.40
2019-03-21T17:21:55.853Z,16.90
2019-03-21T17:24:29.509Z,16.50
2019-03-21T17:26:59.125Z,16.30
2019-03-21T17:29:29.941Z,16.00
2019-03-21T17:32:00.792Z,15.50
2019-03-21T17:34:31.617Z,14.80
2019-03-21T17:37:02.423Z,14.10
2019-03-21T17:39:33.142Z,13.50
2019-03-21T17:42:03.860Z,13.00
2019-03-21T17:44:34.609Z,12.60
2019-03-21T17:47:05.137Z,12.30
2019-03-21T17:49:35.982Z,11.90
2019-03-21T17:52:06.588Z,11.70
2019-03-21T17:54:41.827Z,11.50
2019-03-21T17:57:10.574Z,11.20
2019-03-21T17:59:41.395Z,10.90
2019-03-21T18:02:12.393Z,10.70
2019-03-21T18:04:43.230Z,10.50
2019-03-21T18:07:14.021Z,10.40
2019-03-21T18:09:46.405Z,10.30
2019-03-21T18:12:17.077Z,10.20
2019-03-21T18:14:47.707Z,10.00
2019-03-21T18:17:18.491Z,9.80
2019-03-21T18:19:48.936Z,9.70
2019-03-21T18:22:31.125Z,9.60
2019-03-21T18:25:01.788Z,9.30
2019-03-21T18:27:34.891Z,8.80
2019-03-21T18:30:06.382Z,8.50
2019-03-21T18:32:38.763Z,8.10
2019-03-21T18:35:11.988Z,7.90
2019-03-21T18:37:44.061Z,7.60
2019-03-21T18:40:17.144Z,7.50
2019-03-21T18:42:47.982Z,7.50
2019-03-21T18:45:18.506Z,7.50
2019-03-21T18:47:48.967Z,7.50
2019-03-21T18:50:19.480Z,7.60
2019-03-21T18:52:49.884Z,7.60
2019-03-21T18:55:20.530Z,7.80
2019-03-21T18:57:50.919Z,7.80
2019-03-21T19:00:22.718Z,7.60
2019-03-21T19:02:53.380Z,7.30
2019-03-21T19:05:23.786Z,7.10
2019-03-21T19:07:58.907Z,6.90
2019-03-21T19:10:32.495Z,6.80
2019-03-21T19:13:03.038Z,6.90
2019-03-21T19:15:33.564Z,6.90
2019-03-21T19:18:04.102Z,7.00
2019-03-21T19:20:34.723Z,7.00
2019-03-21T19:23:05.125Z,7.00
2019-03-21T19:25:35.640Z,6.80
2019-03-21T19:28:06.502Z,6.60
2019-03-21T19:30:37.101Z,6.50
2019-03-21T19:33:09.282Z,6.40
2019-03-21T19:35:39.682Z,6.40
2019-03-21T19:38:10.116Z,6.40
2019-03-21T19:40:40.533Z,6.30
2019-03-21T19:43:10.922Z,6.20
2019-03-21T19:45:41.308Z,6.00
2019-03-21T19:48:11.783Z,5.90
2019-03-21T19:50:42.275Z,5.80
2019-03-21T19:53:12.680Z,5.70
2019-03-21T19:56:08.364Z,5.60
2019-03-21T19:58:50.071Z,5.50
2019-03-21T20:01:28.493Z,5.50
2019-03-21T20:03:58.733Z,5.50
2019-03-21T20:06:29.207Z,5.50
2019-03-21T20:08:59.615Z,5.60
2019-03-21T20:11:30.190Z,5.80
2019-03-21T20:14:03.840Z,5.80
2019-03-21T20:16:33.583Z,5.80
2019-03-21T20:19:04.076Z,5.70
2019-03-21T20:21:34.722Z,5.60
2019-03-21T20:24:05.483Z,5.50
2019-03-21T20:26:36.163Z,5.50
2019-03-21T20:29:06.850Z,5.60
2019-03-21T20:31:37.511Z,5.60
2019-03-21T20:34:08.206Z,5.60
2019-03-21T20:36:39.115Z,5.50
2019-03-21T20:39:10.047Z,5.50
2019-03-21T20:41:40.768Z,5.50
2019-03-21T20:44:15.458Z,5.60
2019-03-21T20:46:43.974Z,5.50
2019-03-21T20:49:14.716Z,5.40
2019-03-21T20:51:45.482Z,5.40
2019-03-21T20:54:16.223Z,5.30
2019-03-21T20:56:47.120Z,5.20
2019-03-21T20:59:17.648Z,5.20
2019-03-21T21:01:49.197Z,5.10
2019-03-21T21:04:19.911Z,5.00
2019-03-21T21:06:52.914Z,5.00
2019-03-21T21:09:23.960Z,5.10
2019-03-21T21:11:54.687Z,5.30
2019-03-21T21:14:25.610Z,5.30
2019-03-21T21:16:56.416Z,5.30
2019-03-21T21:19:27.246Z,5.30
2019-03-21T21:21:58.125Z,5.20
2019-03-21T21:24:28.923Z,5.10
2019-03-21T21:26:59.686Z,5.10
2019-03-21T21:29:30.509Z,5.10
2019-03-21T21:32:01.297Z,4.90
2019-03-21T21:34:32.319Z,4.50
2019-03-21T21:37:02.930Z,4.30
2019-03-21T21:39:33.475Z,4.10
2019-03-21T21:42:04.219Z,3.90
2019-03-21T21:44:34.940Z,3.80
2019-03-21T21:47:05.651Z,3.80
2019-03-21T21:49:36.512Z,3.90
2019-03-21T21:52:06.994Z,4.00
2019-03-21T21:54:38.895Z,4.00
2019-03-21T21:57:09.618Z,4.10
2019-03-21T21:59:40.354Z,4.10
2019-03-21T22:02:11.003Z,4.10
2019-03-21T22:04:42.494Z,4.20
2019-03-21T22:07:13.235Z,4.20
2019-03-21T22:09:44.053Z,4.10
2019-03-21T22:12:14.883Z,4.10
2019-03-21T22:14:45.615Z,4.10
2019-03-21T22:17:16.407Z,4.00
2019-03-21T22:19:47.118Z,4.00
2019-03-21T22:22:19.339Z,4.10
2019-03-21T22:24:50.354Z,4.00
2019-03-21T22:27:21.077Z,4.10
2019-03-21T22:29:51.851Z,4.20
2019-03-21T22:32:22.549Z,4.20
2019-03-21T22:34:53.275Z,4.20
2019-03-21T22:37:23.958Z,4.20
2019-03-21T22:39:54.635Z,4.20
2019-03-21T22:42:25.333Z,4.00
2019-03-21T22:44:56.058Z,3.80
2019-03-21T22:47:27.493Z,3.70
2019-03-21T22:49:58.292Z,3.60
2019-03-21T22:52:29.095Z,3.40
2019-03-21T22:54:59.858Z,3.30
2019-03-21T22:57:30.502Z,3.20
2019-03-21T23:00:01.263Z,3.30
2019-03-21T23:02:32.267Z,3.50
2019-03-21T23:05:03.095Z,3.70
2019-03-21T23:07:34.810Z,3.70
2019-03-21T23:10:06.090Z,3.70
2019-03-21T23:12:36.746Z,3.50
2019-03-21T23:15:08.424Z,3.40
2019-03-21T23:17:39.538Z,3.30
2019-03-21T23:20:10.658Z,3.30
2019-03-21T23:22:43.256Z,3.30
2019-03-21T23:25:16.629Z,3.30
2019-03-21T23:27:46.820Z,3.40
2019-03-21T23:30:17.947Z,3.40
2019-03-21T23:32:48.753Z,3.40
2019-03-21T23:35:19.450Z,3.30
2019-03-21T23:37:50.942Z,3.30
2019-03-21T23:40:21.644Z,3.20
2019-03-21T23:42:52.439Z,3.10
2019-03-21T23:45:23.609Z,3.10
2019-03-21T23:47:54.407Z,3.00
2019-03-21T23:50:25.504Z,2.90
2019-03-21T23:52:58.352Z,2.80
2019-03-21T23:55:29.660Z,2.80
2019-03-21T23:58:00.510Z,2.80
